sensor_id;sensor_type;location;lat;lon;timestamp;temperature;humidity
21698;DHT22;11010;49.548;11.926;2024-02-15T00:02:29;6.80;99.90
21698;DHT22;11010;49.548;11.926;2024-02-15T00:04:57;6.80;99.90
21698;DHT22;11010;49.548;11.926;2024-02-15T00:07:25;7.00;99.90
21698;DHT22;11010;49.548;11.926;2024-02-15T00:09:53;6.90;99.90
21698;DHT22;11010;49.548;11.926;2024-02-15T00:12:23;7.20;99.90
21698;DHT22;11010;49.548;11.926;2024-02-15T00:14:50;6.80;99.90
21698;DHT22;11010;49.548;11.926;2024-02-15T00:17:17;6.90;99.90
21698;DHT22;11010;49.548;11.926;2024-02-15T00:19:45;6.80;99.90
21698;DHT22;11010;49.548;11.926;2024-02-15T00:22:13;7.10;99.90
21698;DHT22;11010;49.548;11.926;2024-02-15T00:24:40;7.10;99.90
21698;DHT22;11010;49.548;11.926;2024-02-15T00:27:10;6.80;99.90
21698;DHT22;11010;49.548;11.926;2024-02-15T00:29:38;7.20;99.90
21698;DHT22;11010;49.548;11.926;2024-02-15T00:32:07;7.10;99.90
21698;DHT22;11010;49.548;11.926;2024-02-15T00:34:36;7.10;99.90
21698;DHT22;11010;49.548;11.926;2024-02-15T00:37:05;7.00;99.90
21698;DHT22;11010;49.548;11.926;2024-02-15T00:39:32;7.10;99.90
21698;DHT22;11010;49.548;11.926;2024-02-15T00:42:00;7.20;99.90
21698;DHT22;11010;49.548;11.926;2024-02-15T00:44:27;7.20;99.90
21698;DHT22;11010;49.548;11.926;2024-02-15T00:46:55;7.10;99.90
21698;DHT22;11010;49.548;11.926;2024-02-15T00:49:23;6.80;99.90
21698;DHT22;11010;49.548;11.926;2024-02-15T00:51:50;6.70;99.90
21698;DHT22;11010;49.548;11.926;2024-02-15T00:54:17;6.70;99.90
21698;DHT22;11010;49.548;11.926;2024-02-15T00:56:44;6.70;99.90
21698;DHT22;11010;49.548;11.926;2024-02-15T00:59:12;7.20;99.90
21698;DHT22;11010;49.548;11.926;2024-02-15T01:01:39;7.20;99.90
21698;DHT22;11010;49.548;11.926;2024-02-15T01:04:08;7.20;99.90
21698;DHT22;11010;49.548;11.926;2024-02-15T01:06:35;6.80;99.90
21698;DHT22;11010;49.548;11.926;2024-02-15T01:09:03;6.80;99.90
21698;DHT22;11010;49.548;11.926;2024-02-15T01:11:31;7.20;99.90
21698;DHT22;11010;49.548;11.926;2024-02-15T01:14:02;6.80;99.90
21698;DHT22;11010;49.548;11.926;2024-02-15T01:16:30;7.30;99.90
21698;DHT22;11010;49.548;11.926;2024-02-15T01:18:57;6.70;99.90
21698;DHT22;11010;49.548;11.926;2024-02-15T01:21:25;6.80;99.90
21698;DHT22;11010;49.548;11.926;2024-02-15T01:23:52;7.10;99.90
21698;DHT22;11010;49.548;11.926;2024-02-15T01:26:21;7.30;99.90
21698;DHT22;11010;49.548;11.926;2024-02-15T01:28:48;7.30;99.90
21698;DHT22;11010;49.548;11.926;2024-02-15T01:31:15;7.30;99.90
21698;DHT22;11010;49.548;11.926;2024-02-15T01:33:44;6.70;99.90
21698;DHT22;11010;49.548;11.926;2024-02-15T01:36:16;7.30;99.90
21698;DHT22;11010;49.548;11.926;2024-02-15T01:38:44;6.70;99.90
21698;DHT22;11010;49.548;11.926;2024-02-15T01:41:12;6.70;99.90
21698;DHT22;11010;49.548;11.926;2024-02-15T01:43:43;7.30;99.90
21698;DHT22;11010;49.548;11.926;2024-02-15T01:46:15;6.80;99.90
21698;DHT22;11010;49.548;11.926;2024-02-15T01:48:43;7.40;99.90
21698;DHT22;11010;49.548;11.926;2024-02-15T01:51:12;7.40;99.90
21698;DHT22;11010;49.548;11.926;2024-02-15T01:53:42;7.40;99.90
21698;DHT22;11010;49.548;11.926;2024-02-15T01:56:12;7.50;99.90
21698;DHT22;11010;49.548;11.926;2024-02-15T01:58:40;7.30;99.90
21698;DHT22;11010;49.548;11.926;2024-02-15T02:01:08;7.40;99.90
21698;DHT22;11010;49.548;11.926;2024-02-15T02:03:36;7.30;99.90
21698;DHT22;11010;49.548;11.926;2024-02-15T02:06:04;6.80;99.90
21698;DHT22;11010;49.548;11.926;2024-02-15T02:08:33;7.10;99.90
21698;DHT22;11010;49.548;11.926;2024-02-15T02:11:00;7.40;99.90
21698;DHT22;11010;49.548;11.926;2024-02-15T02:13:28;7.30;99.90
21698;DHT22;11010;49.548;11.926;2024-02-15T02:15:57;7.30;99.90
21698;DHT22;11010;49.548;11.926;2024-02-15T02:18:26;6.80;99.90
21698;DHT22;11010;49.548;11.926;2024-02-15T02:20:53;6.80;99.90
21698;DHT22;11010;49.548;11.926;2024-02-15T02:23:26;7.30;99.90
21698;DHT22;11010;49.548;11.926;2024-02-15T02:25:55;7.10;99.90
21698;DHT22;11010;49.548;11.926;2024-02-15T02:28:23;6.80;99.90
21698;DHT22;11010;49.548;11.926;2024-02-15T02:30:50;6.80;99.90
21698;DHT22;11010;49.548;11.926;2024-02-15T02:33:18;6.80;99.90
21698;DHT22;11010;49.548;11.926;2024-02-15T02:35:47;6.80;99.90
21698;DHT22;11010;49.548;11.926;2024-02-15T02:38:15;7.50;99.90
21698;DHT22;11010;49.548;11.926;2024-02-15T02:40:43;7.60;99.90
21698;DHT22;11010;49.548;11.926;2024-02-15T02:43:10;7.20;99.90
21698;DHT22;11010;49.548;11.926;2024-02-15T02:45:37;7.60;99.90
21698;DHT22;11010;49.548;11.926;2024-02-15T02:48:05;7.60;99.90
21698;DHT22;11010;49.548;11.926;2024-02-15T02:50:33;7.00;99.90
21698;DHT22;11010;49.548;11.926;2024-02-15T02:53:00;6.80;99.90
21698;DHT22;11010;49.548;11.926;2024-02-15T02:55:27;7.40;99.90
21698;DHT22;11010;49.548;11.926;2024-02-15T02:57:55;6.90;99.90
21698;DHT22;11010;49.548;11.926;2024-02-15T03:00:22;7.50;99.90
21698;DHT22;11010;49.548;11.926;2024-02-15T03:02:50;7.50;99.90
21698;DHT22;11010;49.548;11.926;2024-02-15T03:05:17;7.20;99.90
21698;DHT22;11010;49.548;11.926;2024-02-15T03:07:48;6.70;99.90
21698;DHT22;11010;49.548;11.926;2024-02-15T03:10:18;7.40;99.90
21698;DHT22;11010;49.548;11.926;2024-02-15T03:12:46;7.00;99.90
21698;DHT22;11010;49.548;11.926;2024-02-15T03:15:16;6.70;99.90
21698;DHT22;11010;49.548;11.926;2024-02-15T03:17:47;6.70;99.90
21698;DHT22;11010;49.548;11.926;2024-02-15T03:20:15;7.00;99.90
21698;DHT22;11010;49.548;11.926;2024-02-15T03:22:53;7.10;99.90
21698;DHT22;11010;49.548;11.926;2024-02-15T03:25:21;7.30;99.90
21698;DHT22;11010;49.548;11.926;2024-02-15T03:27:58;6.80;99.90
21698;DHT22;11010;49.548;11.926;2024-02-15T03:30:27;7.20;99.90
21698;DHT22;11010;49.548;11.926;2024-02-15T03:32:58;7.40;99.90
21698;DHT22;11010;49.548;11.926;2024-02-15T03:35:26;7.50;99.90
21698;DHT22;11010;49.548;11.926;2024-02-15T03:37:56;6.80;99.90
21698;DHT22;11010;49.548;11.926;2024-02-15T03:40:23;7.40;99.90
21698;DHT22;11010;49.548;11.926;2024-02-15T03:42:53;6.80;99.90
21698;DHT22;11010;49.548;11.926;2024-02-15T03:45:21;7.30;99.90
21698;DHT22;11010;49.548;11.926;2024-02-15T03:47:54;6.70;99.90
21698;DHT22;11010;49.548;11.926;2024-02-15T03:50:23;6.80;99.90
21698;DHT22;11010;49.548;11.926;2024-02-15T03:52:51;6.80;99.90
21698;DHT22;11010;49.548;11.926;2024-02-15T03:55:19;7.40;99.90
21698;DHT22;11010;49.548;11.926;2024-02-15T03:57:46;6.80;99.90
21698;DHT22;11010;49.548;11.926;2024-02-15T04:00:14;6.70;99.90
21698;DHT22;11010;49.548;11.926;2024-02-15T04:02:49;6.80;99.90
21698;DHT22;11010;49.548;11.926;2024-02-15T04:05:16;6.90;99.90
21698;DHT22;11010;49.548;11.926;2024-02-15T04:07:46;6.80;99.90
21698;DHT22;11010;49.548;11.926;2024-02-15T04:10:13;6.80;99.90
21698;DHT22;11010;49.548;11.926;2024-02-15T04:12:41;7.30;99.90
21698;DHT22;11010;49.548;11.926;2024-02-15T04:15:11;7.30;99.90
21698;DHT22;11010;49.548;11.926;2024-02-15T04:17:45;7.40;99.90
21698;DHT22;11010;49.548;11.926;2024-02-15T04:20:13;7.40;99.90
21698;DHT22;11010;49.548;11.926;2024-02-15T04:22:42;7.10;99.90
21698;DHT22;11010;49.548;11.926;2024-02-15T04:25:10;6.80;99.90
21698;DHT22;11010;49.548;11.926;2024-02-15T04:27:48;7.40;99.90
21698;DHT22;11010;49.548;11.926;2024-02-15T04:30:17;7.30;99.90
21698;DHT22;11010;49.548;11.926;2024-02-15T04:32:45;6.90;99.90
21698;DHT22;11010;49.548;11.926;2024-02-15T04:35:12;7.30;99.90
21698;DHT22;11010;49.548;11.926;2024-02-15T04:37:42;6.70;99.90
21698;DHT22;11010;49.548;11.926;2024-02-15T04:40:09;7.30;99.90
21698;DHT22;11010;49.548;11.926;2024-02-15T04:42:41;7.30;99.90
21698;DHT22;11010;49.548;11.926;2024-02-15T04:45:12;7.30;99.90
21698;DHT22;11010;49.548;11.926;2024-02-15T04:47:41;7.20;99.90
21698;DHT22;11010;49.548;11.926;2024-02-15T04:50:09;7.40;99.90
21698;DHT22;11010;49.548;11.926;2024-02-15T04:52:36;7.00;99.90
21698;DHT22;11010;49.548;11.926;2024-02-15T04:55:04;7.20;99.90
21698;DHT22;11010;49.548;11.926;2024-02-15T04:57:34;7.10;99.90
21698;DHT22;11010;49.548;11.926;2024-02-15T05:00:04;6.90;99.90
21698;DHT22;11010;49.548;11.926;2024-02-15T05:02:38;7.40;99.90
21698;DHT22;11010;49.548;11.926;2024-02-15T05:05:09;7.30;99.90
21698;DHT22;11010;49.548;11.926;2024-02-15T05:07:36;7.40;99.90
21698;DHT22;11010;49.548;11.926;2024-02-15T05:10:07;7.40;99.90
21698;DHT22;11010;49.548;11.926;2024-02-15T05:12:37;7.40;99.90
21698;DHT22;11010;49.548;11.926;2024-02-15T05:15:07;7.10;99.90
21698;DHT22;11010;49.548;11.926;2024-02-15T05:17:40;7.10;99.90
21698;DHT22;11010;49.548;11.926;2024-02-15T05:20:09;7.40;99.90
21698;DHT22;11010;49.548;11.926;2024-02-15T05:22:39;6.90;99.90
21698;DHT22;11010;49.548;11.926;2024-02-15T05:25:09;6.70;99.90
21698;DHT22;11010;49.548;11.926;2024-02-15T05:27:36;6.70;99.90
21698;DHT22;11010;49.548;11.926;2024-02-15T05:30:04;6.90;99.90
21698;DHT22;11010;49.548;11.926;2024-02-15T05:32:35;7.20;99.90
21698;DHT22;11010;49.548;11.926;2024-02-15T05:35:10;7.30;99.90
21698;DHT22;11010;49.548;11.926;2024-02-15T05:37:38;7.30;99.90
21698;DHT22;11010;49.548;11.926;2024-02-15T05:40:06;7.40;99.90
21698;DHT22;11010;49.548;11.926;2024-02-15T05:42:34;6.70;99.90
21698;DHT22;11010;49.548;11.926;2024-02-15T05:47:52;7.40;99.90
21698;DHT22;11010;49.548;11.926;2024-02-15T05:50:20;7.20;99.90
21698;DHT22;11010;49.548;11.926;2024-02-15T05:52:48;6.70;99.90
21698;DHT22;11010;49.548;11.926;2024-02-15T05:55:15;6.60;99.90
21698;DHT22;11010;49.548;11.926;2024-02-15T05:57:46;7.40;99.90
21698;DHT22;11010;49.548;11.926;2024-02-15T06:00:13;7.40;99.90
21698;DHT22;11010;49.548;11.926;2024-02-15T06:02:49;6.70;99.90
21698;DHT22;11010;49.548;11.926;2024-02-15T06:05:18;6.60;99.90
21698;DHT22;11010;49.548;11.926;2024-02-15T06:07:45;7.40;99.90
21698;DHT22;11010;49.548;11.926;2024-02-15T06:10:14;6.70;99.90
21698;DHT22;11010;49.548;11.926;2024-02-15T06:12:42;6.90;99.90
21698;DHT22;11010;49.548;11.926;2024-02-15T06:15:10;7.40;99.90
21698;DHT22;11010;49.548;11.926;2024-02-15T06:17:44;7.00;99.90
21698;DHT22;11010;49.548;11.926;2024-02-15T06:20:13;7.40;99.90
21698;DHT22;11010;49.548;11.926;2024-02-15T06:22:48;6.90;99.90
21698;DHT22;11010;49.548;11.926;2024-02-15T06:25:16;7.10;99.90
21698;DHT22;11010;49.548;11.926;2024-02-15T06:27:48;6.70;99.90
21698;DHT22;11010;49.548;11.926;2024-02-15T06:30:18;7.40;99.90
21698;DHT22;11010;49.548;11.926;2024-02-15T06:33:04;7.30;99.90
21698;DHT22;11010;49.548;11.926;2024-02-15T06:35:50;6.70;99.90
21698;DHT22;11010;49.548;11.926;2024-02-15T06:38:36;7.40;99.90
21698;DHT22;11010;49.548;11.926;2024-02-15T06:41:21;7.50;99.90
21698;DHT22;11010;49.548;11.926;2024-02-15T06:43:52;6.90;99.90
21698;DHT22;11010;49.548;11.926;2024-02-15T06:46:19;7.30;99.90
21698;DHT22;11010;49.548;11.926;2024-02-15T06:48:47;7.40;99.90
21698;DHT22;11010;49.548;11.926;2024-02-15T06:51:15;7.40;99.90
21698;DHT22;11010;49.548;11.926;2024-02-15T06:53:43;7.10;99.90
21698;DHT22;11010;49.548;11.926;2024-02-15T06:56:11;7.40;99.90
21698;DHT22;11010;49.548;11.926;2024-02-15T06:58:39;7.40;99.90
21698;DHT22;11010;49.548;11.926;2024-02-15T07:01:09;7.40;99.90
21698;DHT22;11010;49.548;11.926;2024-02-15T07:03:37;7.30;99.90
21698;DHT22;11010;49.548;11.926;2024-02-15T07:06:06;7.30;99.90
21698;DHT22;11010;49.548;11.926;2024-02-15T07:08:33;7.30;99.90
21698;DHT22;11010;49.548;11.926;2024-02-15T07:11:01;7.40;99.90
21698;DHT22;11010;49.548;11.926;2024-02-15T07:13:31;7.20;99.90
21698;DHT22;11010;49.548;11.926;2024-02-15T07:15:59;6.80;99.90
21698;DHT22;11010;49.548;11.926;2024-02-15T07:18:26;7.00;99.90
21698;DHT22;11010;49.548;11.926;2024-02-15T07:20:55;6.80;99.90
21698;DHT22;11010;49.548;11.926;2024-02-15T07:23:27;7.40;99.90
21698;DHT22;11010;49.548;11.926;2024-02-15T07:25:54;7.20;99.90
21698;DHT22;11010;49.548;11.926;2024-02-15T07:28:22;7.50;99.90
21698;DHT22;11010;49.548;11.926;2024-02-15T07:30:52;7.50;99.90
21698;DHT22;11010;49.548;11.926;2024-02-15T07:33:22;7.30;99.90
21698;DHT22;11010;49.548;11.926;2024-02-15T07:35:51;7.40;99.90
21698;DHT22;11010;49.548;11.926;2024-02-15T07:38:19;6.80;99.90
21698;DHT22;11010;49.548;11.926;2024-02-15T07:40:50;7.50;99.90
21698;DHT22;11010;49.548;11.926;2024-02-15T07:43:17;6.90;99.90
21698;DHT22;11010;49.548;11.926;2024-02-15T07:45:44;6.90;99.90
21698;DHT22;11010;49.548;11.926;2024-02-15T07:48:14;7.70;99.90
21698;DHT22;11010;49.548;11.926;2024-02-15T07:50:42;7.20;99.90
21698;DHT22;11010;49.548;11.926;2024-02-15T07:53:11;7.70;99.90
21698;DHT22;11010;49.548;11.926;2024-02-15T07:55:38;7.00;99.90
21698;DHT22;11010;49.548;11.926;2024-02-15T07:58:06;7.80;99.90
21698;DHT22;11010;49.548;11.926;2024-02-15T08:00:33;7.20;99.90
21698;DHT22;11010;49.548;11.926;2024-02-15T08:03:00;7.70;99.90
21698;DHT22;11010;49.548;11.926;2024-02-15T08:05:28;7.10;99.90
21698;DHT22;11010;49.548;11.926;2024-02-15T08:07:55;7.80;99.90
21698;DHT22;11010;49.548;11.926;2024-02-15T08:10:25;7.50;99.90
21698;DHT22;11010;49.548;11.926;2024-02-15T08:12:54;7.70;99.90
21698;DHT22;11010;49.548;11.926;2024-02-15T08:15:25;8.10;99.90
21698;DHT22;11010;49.548;11.926;2024-02-15T08:17:55;7.90;99.90
21698;DHT22;11010;49.548;11.926;2024-02-15T08:20:22;7.30;99.90
21698;DHT22;11010;49.548;11.926;2024-02-15T08:22:50;8.10;99.90
21698;DHT22;11010;49.548;11.926;2024-02-15T08:25:17;8.10;99.90
21698;DHT22;11010;49.548;11.926;2024-02-15T08:27:47;7.40;99.90
21698;DHT22;11010;49.548;11.926;2024-02-15T08:30:18;8.20;99.90
21698;DHT22;11010;49.548;11.926;2024-02-15T08:32:51;7.50;99.90
21698;DHT22;11010;49.548;11.926;2024-02-15T08:35:20;7.70;99.90
21698;DHT22;11010;49.548;11.926;2024-02-15T08:37:48;8.30;99.90
21698;DHT22;11010;49.548;11.926;2024-02-15T08:40:18;7.60;99.90
21698;DHT22;11010;49.548;11.926;2024-02-15T08:42:51;7.70;99.90
21698;DHT22;11010;49.548;11.926;2024-02-15T08:45:19;7.80;99.90
21698;DHT22;11010;49.548;11.926;2024-02-15T08:47:47;7.70;99.90
21698;DHT22;11010;49.548;11.926;2024-02-15T08:50:17;7.70;99.90
21698;DHT22;11010;49.548;11.926;2024-02-15T08:52:44;8.60;99.90
21698;DHT22;11010;49.548;11.926;2024-02-15T08:55:12;8.50;99.90
21698;DHT22;11010;49.548;11.926;2024-02-15T08:57:42;7.90;99.90
21698;DHT22;11010;49.548;11.926;2024-02-15T09:00:11;8.00;99.90
21698;DHT22;11010;49.548;11.926;2024-02-15T09:02:47;8.40;99.90
21698;DHT22;11010;49.548;11.926;2024-02-15T09:05:16;8.10;99.90
21698;DHT22;11010;49.548;11.926;2024-02-15T09:07:45;8.70;99.90
21698;DHT22;11010;49.548;11.926;2024-02-15T09:10:17;8.10;99.90
21698;DHT22;11010;49.548;11.926;2024-02-15T09:12:45;8.30;99.90
21698;DHT22;11010;49.548;11.926;2024-02-15T09:15:16;8.50;99.90
21698;DHT22;11010;49.548;11.926;2024-02-15T09:17:44;8.50;99.90
21698;DHT22;11010;49.548;11.926;2024-02-15T09:20:15;8.70;99.90
21698;DHT22;11010;49.548;11.926;2024-02-15T09:22:48;8.50;99.90
21698;DHT22;11010;49.548;11.926;2024-02-15T09:25:16;9.10;99.90
21698;DHT22;11010;49.548;11.926;2024-02-15T09:27:44;8.80;99.90
21698;DHT22;11010;49.548;11.926;2024-02-15T09:30:13;9.10;99.90
21698;DHT22;11010;49.548;11.926;2024-02-15T09:32:40;8.90;99.90
21698;DHT22;11010;49.548;11.926;2024-02-15T09:35:10;9.20;99.90
21698;DHT22;11010;49.548;11.926;2024-02-15T09:37:46;8.80;99.90
21698;DHT22;11010;49.548;11.926;2024-02-15T09:40:17;9.40;99.90
21698;DHT22;11010;49.548;11.926;2024-02-15T09:42:46;9.50;99.90
21698;DHT22;11010;49.548;11.926;2024-02-15T09:45:14;9.30;99.90
21698;DHT22;11010;49.548;11.926;2024-02-15T09:47:45;9.40;99.90
21698;DHT22;11010;49.548;11.926;2024-02-15T09:50:14;9.10;99.90
21698;DHT22;11010;49.548;11.926;2024-02-15T09:52:53;9.70;99.90
21698;DHT22;11010;49.548;11.926;2024-02-15T09:55:24;9.70;99.90
21698;DHT22;11010;49.548;11.926;2024-02-15T09:57:52;9.40;99.90
21698;DHT22;11010;49.548;11.926;2024-02-15T10:00:19;10.10;99.90
21698;DHT22;11010;49.548;11.926;2024-02-15T10:02:50;10.10;99.90
21698;DHT22;11010;49.548;11.926;2024-02-15T10:05:20;9.60;99.90
21698;DHT22;11010;49.548;11.926;2024-02-15T10:07:48;10.10;99.90
21698;DHT22;11010;49.548;11.926;2024-02-15T10:10:23;9.70;99.90
21698;DHT22;11010;49.548;11.926;2024-02-15T10:12:53;9.70;99.90
21698;DHT22;11010;49.548;11.926;2024-02-15T10:15:35;9.90;99.90
21698;DHT22;11010;49.548;11.926;2024-02-15T10:18:10;10.40;99.90
21698;DHT22;11010;49.548;11.926;2024-02-15T10:20:40;10.70;99.90
21698;DHT22;11010;49.548;11.926;2024-02-15T10:23:14;10.80;99.90
21698;DHT22;11010;49.548;11.926;2024-02-15T10:25:45;10.70;99.90
21698;DHT22;11010;49.548;11.926;2024-02-15T10:28:19;10.90;99.90
21698;DHT22;11010;49.548;11.926;2024-02-15T10:30:47;10.90;99.90
21698;DHT22;11010;49.548;11.926;2024-02-15T10:33:34;11.00;99.90
21698;DHT22;11010;49.548;11.926;2024-02-15T10:36:09;11.20;99.90
21698;DHT22;11010;49.548;11.926;2024-02-15T10:38:38;10.90;99.90
21698;DHT22;11010;49.548;11.926;2024-02-15T10:41:07;10.70;99.90
21698;DHT22;11010;49.548;11.926;2024-02-15T10:43:39;10.90;99.90
21698;DHT22;11010;49.548;11.926;2024-02-15T10:46:12;10.50;99.90
21698;DHT22;11010;49.548;11.926;2024-02-15T10:48:39;10.60;99.90
21698;DHT22;11010;49.548;11.926;2024-02-15T10:51:10;10.50;99.90
21698;DHT22;11010;49.548;11.926;2024-02-15T10:53:47;10.80;99.90
21698;DHT22;11010;49.548;11.926;2024-02-15T10:56:18;10.80;99.90
21698;DHT22;11010;49.548;11.926;2024-02-15T10:58:52;10.80;99.90
21698;DHT22;11010;49.548;11.926;2024-02-15T11:01:23;10.60;99.90
21698;DHT22;11010;49.548;11.926;2024-02-15T11:03:57;10.70;99.90
21698;DHT22;11010;49.548;11.926;2024-02-15T11:06:27;10.90;99.90
21698;DHT22;11010;49.548;11.926;2024-02-15T11:08:57;10.90;99.90
21698;DHT22;11010;49.548;11.926;2024-02-15T11:11:27;11.30;99.90
21698;DHT22;11010;49.548;11.926;2024-02-15T11:14:27;11.30;99.90
21698;DHT22;11010;49.548;11.926;2024-02-15T11:16:57;11.50;99.90
21698;DHT22;11010;49.548;11.926;2024-02-15T11:22:11;11.60;99.90
21698;DHT22;11010;49.548;11.926;2024-02-15T11:27:28;11.50;99.90
21698;DHT22;11010;49.548;11.926;2024-02-15T11:30:00;11.30;99.90
21698;DHT22;11010;49.548;11.926;2024-02-15T11:40:23;11.70;99.90
21698;DHT22;11010;49.548;11.926;2024-02-15T11:43:01;11.60;99.90
21698;DHT22;11010;49.548;11.926;2024-02-15T11:45:31;11.80;99.90
21698;DHT22;11010;49.548;11.926;2024-02-15T11:48:01;12.00;99.90
21698;DHT22;11010;49.548;11.926;2024-02-15T11:50:34;11.90;99.90
21698;DHT22;11010;49.548;11.926;2024-02-15T11:53:06;11.70;99.90
21698;DHT22;11010;49.548;11.926;2024-02-15T11:55:39;11.60;99.90
21698;DHT22;11010;49.548;11.926;2024-02-15T11:58:08;11.50;99.90
21698;DHT22;11010;49.548;11.926;2024-02-15T12:00:37;11.50;99.90
21698;DHT22;11010;49.548;11.926;2024-02-15T12:03:24;11.60;99.90
21698;DHT22;11010;49.548;11.926;2024-02-15T12:06:27;11.70;99.90
21698;DHT22;11010;49.548;11.926;2024-02-15T12:09:18;11.70;99.90
21698;DHT22;11010;49.548;11.926;2024-02-15T12:12:05;12.40;99.90
21698;DHT22;11010;49.548;11.926;2024-02-15T12:15:01;12.90;99.90
21698;DHT22;11010;49.548;11.926;2024-02-15T12:17:48;12.50;99.90
21698;DHT22;11010;49.548;11.926;2024-02-15T12:20:34;12.60;99.90
21698;DHT22;11010;49.548;11.926;2024-02-15T12:23:02;12.40;99.90
21698;DHT22;11010;49.548;11.926;2024-02-15T12:25:30;12.30;99.90
21698;DHT22;11010;49.548;11.926;2024-02-15T12:28:01;12.20;99.90
21698;DHT22;11010;49.548;11.926;2024-02-15T12:30:35;12.10;99.90
21698;DHT22;11010;49.548;11.926;2024-02-15T12:33:12;12.10;99.90
21698;DHT22;11010;49.548;11.926;2024-02-15T12:35:41;12.00;99.90
21698;DHT22;11010;49.548;11.926;2024-02-15T12:38:12;12.00;99.90
21698;DHT22;11010;49.548;11.926;2024-02-15T12:40:42;12.10;99.90
21698;DHT22;11010;49.548;11.926;2024-02-15T12:43:15;12.10;99.90
21698;DHT22;11010;49.548;11.926;2024-02-15T12:45:43;12.10;99.90
21698;DHT22;11010;49.548;11.926;2024-02-15T12:48:10;12.10;99.90
21698;DHT22;11010;49.548;11.926;2024-02-15T12:50:38;12.20;99.90
21698;DHT22;11010;49.548;11.926;2024-02-15T12:53:07;12.20;99.90
21698;DHT22;11010;49.548;11.926;2024-02-15T12:55:36;12.20;99.90
21698;DHT22;11010;49.548;11.926;2024-02-15T12:58:12;12.10;99.90
21698;DHT22;11010;49.548;11.926;2024-02-15T13:00:42;12.10;99.90
21698;DHT22;11010;49.548;11.926;2024-02-15T13:03:12;12.20;99.90
21698;DHT22;11010;49.548;11.926;2024-02-15T13:05:42;12.30;99.90
21698;DHT22;11010;49.548;11.926;2024-02-15T13:08:09;12.40;99.90
21698;DHT22;11010;49.548;11.926;2024-02-15T13:10:40;12.60;99.90
21698;DHT22;11010;49.548;11.926;2024-02-15T13:13:07;12.50;99.90
21698;DHT22;11010;49.548;11.926;2024-02-15T13:15:37;12.80;99.90
21698;DHT22;11010;49.548;11.926;2024-02-15T13:18:06;13.60;99.90
21698;DHT22;11010;49.548;11.926;2024-02-15T13:20:37;14.30;99.90
21698;DHT22;11010;49.548;11.926;2024-02-15T13:23:09;14.40;99.90
21698;DHT22;11010;49.548;11.926;2024-02-15T13:25:42;14.80;99.90
21698;DHT22;11010;49.548;11.926;2024-02-15T13:28:12;15.20;99.90
21698;DHT22;11010;49.548;11.926;2024-02-15T13:30:42;15.30;99.90
21698;DHT22;11010;49.548;11.926;2024-02-15T13:33:12;15.40;99.90
21698;DHT22;11010;49.548;11.926;2024-02-15T13:35:41;15.40;99.90
21698;DHT22;11010;49.548;11.926;2024-02-15T13:38:09;15.50;99.90
21698;DHT22;11010;49.548;11.926;2024-02-15T13:40:42;15.60;99.90
21698;DHT22;11010;49.548;11.926;2024-02-15T13:43:12;15.60;99.90
21698;DHT22;11010;49.548;11.926;2024-02-15T13:45:40;15.70;99.90
21698;DHT22;11010;49.548;11.926;2024-02-15T13:48:08;15.80;99.90
21698;DHT22;11010;49.548;11.926;2024-02-15T13:50:37;15.60;99.90
21698;DHT22;11010;49.548;11.926;2024-02-15T13:53:07;15.60;99.90
21698;DHT22;11010;49.548;11.926;2024-02-15T13:55:37;15.00;99.90
21698;DHT22;11010;49.548;11.926;2024-02-15T13:58:05;14.90;99.90
21698;DHT22;11010;49.548;11.926;2024-02-15T14:00:35;14.20;99.90
21698;DHT22;11010;49.548;11.926;2024-02-15T14:03:04;14.00;99.90
21698;DHT22;11010;49.548;11.926;2024-02-15T14:05:34;13.70;99.90
21698;DHT22;11010;49.548;11.926;2024-02-15T14:08:05;13.60;99.90
21698;DHT22;11010;49.548;11.926;2024-02-15T14:10:33;13.60;99.90
21698;DHT22;11010;49.548;11.926;2024-02-15T14:13:04;13.50;99.90
21698;DHT22;11010;49.548;11.926;2024-02-15T14:15:36;13.40;99.90
21698;DHT22;11010;49.548;11.926;2024-02-15T14:18:07;13.20;99.90
21698;DHT22;11010;49.548;11.926;2024-02-15T14:20:38;13.10;99.90
21698;DHT22;11010;49.548;11.926;2024-02-15T14:23:06;13.30;99.90
21698;DHT22;11010;49.548;11.926;2024-02-15T14:25:33;13.30;99.90
21698;DHT22;11010;49.548;11.926;2024-02-15T14:28:01;13.40;99.90
21698;DHT22;11010;49.548;11.926;2024-02-15T14:30:30;13.20;99.90
21698;DHT22;11010;49.548;11.926;2024-02-15T14:33:16;13.30;99.90
21698;DHT22;11010;49.548;11.926;2024-02-15T14:35:49;13.20;99.90
21698;DHT22;11010;49.548;11.926;2024-02-15T14:38:16;13.30;99.90
21698;DHT22;11010;49.548;11.926;2024-02-15T14:40:48;13.10;99.90
21698;DHT22;11010;49.548;11.926;2024-02-15T14:43:23;13.00;99.90
21698;DHT22;11010;49.548;11.926;2024-02-15T14:45:53;13.00;99.90
21698;DHT22;11010;49.548;11.926;2024-02-15T14:48:21;13.00;99.90
21698;DHT22;11010;49.548;11.926;2024-02-15T14:50:49;13.10;99.90
21698;DHT22;11010;49.548;11.926;2024-02-15T14:53:19;13.00;99.90
21698;DHT22;11010;49.548;11.926;2024-02-15T14:55:46;12.90;99.90
21698;DHT22;11010;49.548;11.926;2024-02-15T14:58:14;12.90;99.90
21698;DHT22;11010;49.548;11.926;2024-02-15T15:00:45;12.80;99.90
21698;DHT22;11010;49.548;11.926;2024-02-15T15:03:17;12.80;99.90
21698;DHT22;11010;49.548;11.926;2024-02-15T15:05:45;12.70;99.90
21698;DHT22;11010;49.548;11.926;2024-02-15T15:08:31;12.60;99.90
21698;DHT22;11010;49.548;11.926;2024-02-15T15:11:18;12.50;99.90
21698;DHT22;11010;49.548;11.926;2024-02-15T15:14:04;12.40;99.90
21698;DHT22;11010;49.548;11.926;2024-02-15T15:16:33;12.40;99.90
21698;DHT22;11010;49.548;11.926;2024-02-15T15:19:01;12.30;99.90
21698;DHT22;11010;49.548;11.926;2024-02-15T15:21:30;12.20;99.90
21698;DHT22;11010;49.548;11.926;2024-02-15T15:23:58;12.20;99.90
21698;DHT22;11010;49.548;11.926;2024-02-15T15:26:25;12.10;99.90
21698;DHT22;11010;49.548;11.926;2024-02-15T15:28:53;12.10;99.90
21698;DHT22;11010;49.548;11.926;2024-02-15T15:31:24;12.00;99.90
21698;DHT22;11010;49.548;11.926;2024-02-15T15:33:53;12.00;99.90
21698;DHT22;11010;49.548;11.926;2024-02-15T15:36:22;11.90;99.90
21698;DHT22;11010;49.548;11.926;2024-02-15T15:38:50;11.90;99.90
21698;DHT22;11010;49.548;11.926;2024-02-15T15:41:17;11.90;99.90
21698;DHT22;11010;49.548;11.926;2024-02-15T15:43:45;11.90;99.90
21698;DHT22;11010;49.548;11.926;2024-02-15T15:46:14;11.80;99.90
21698;DHT22;11010;49.548;11.926;2024-02-15T15:48:43;11.70;99.90
21698;DHT22;11010;49.548;11.926;2024-02-15T15:51:12;11.70;99.90
21698;DHT22;11010;49.548;11.926;2024-02-15T15:53:42;11.70;99.90
21698;DHT22;11010;49.548;11.926;2024-02-15T15:56:12;11.60;99.90
21698;DHT22;11010;49.548;11.926;2024-02-15T15:58:40;11.60;99.90
21698;DHT22;11010;49.548;11.926;2024-02-15T16:01:12;11.50;99.90